sensor_id;sensor_type;location;lat;lon;timestamp;temperature;humidity
29721;DHT22;23665;51.044;3.748;2022-08-11T00:01:17;22.00;1.00
29721;DHT22;23665;51.044;3.748;2022-08-11T00:03:56;21.90;1.00
29721;DHT22;23665;51.044;3.748;2022-08-11T00:06:37;21.90;1.00
29721;DHT22;23665;51.044;3.748;2022-08-11T00:09:07;21.90;1.00
29721;DHT22;23665;51.044;3.748;2022-08-11T00:11:42;21.80;1.00
29721;DHT22;23665;51.044;3.748;2022-08-11T00:14:21;21.80;1.00
29721;DHT22;23665;51.044;3.748;2022-08-11T00:16:57;21.80;1.00
29721;DHT22;23665;51.044;3.748;2022-08-11T00:19:36;21.80;1.00
29721;DHT22;23665;51.044;3.748;2022-08-11T00:22:03;21.80;1.00
29721;DHT22;23665;51.044;3.748;2022-08-11T00:24:33;21.70;1.00
29721;DHT22;23665;51.044;3.748;2022-08-11T00:26:59;21.60;1.00
29721;DHT22;23665;51.044;3.748;2022-08-11T00:29:26;21.60;1.00
29721;DHT22;23665;51.044;3.748;2022-08-11T00:31:55;21.50;1.00
29721;DHT22;23665;51.044;3.748;2022-08-11T00:34:25;21.50;1.00
29721;DHT22;23665;51.044;3.748;2022-08-11T00:37:01;21.40;1.00
29721;DHT22;23665;51.044;3.748;2022-08-11T00:39:31;21.30;1.00
29721;DHT22;23665;51.044;3.748;2022-08-11T00:48:10;21.40;1.00
29721;DHT22;23665;51.044;3.748;2022-08-11T00:50:48;21.50;1.00
29721;DHT22;23665;51.044;3.748;2022-08-11T00:56:57;21.50;1.00
29721;DHT22;23665;51.044;3.748;2022-08-11T01:08:12;21.30;1.00
29721;DHT22;23665;51.044;3.748;2022-08-11T01:21:40;21.10;1.00
29721;DHT22;23665;51.044;3.748;2022-08-11T01:49:42;20.90;1.00
29721;DHT22;23665;51.044;3.748;2022-08-11T01:52:16;20.90;1.00
29721;DHT22;23665;51.044;3.748;2022-08-11T02:03:38;20.70;1.00
29721;DHT22;23665;51.044;3.748;2022-08-11T02:12:07;20.70;1.00
29721;DHT22;23665;51.044;3.748;2022-08-11T02:18:05;20.70;1.00
29721;DHT22;23665;51.044;3.748;2022-08-11T02:20:56;20.70;1.00
29721;DHT22;23665;51.044;3.748;2022-08-11T02:24:00;20.70;1.00
29721;DHT22;23665;51.044;3.748;2022-08-11T02:26:47;20.60;1.00
29721;DHT22;23665;51.044;3.748;2022-08-11T02:29:41;20.60;1.00
29721;DHT22;23665;51.044;3.748;2022-08-11T02:32:14;20.50;1.00
29721;DHT22;23665;51.044;3.748;2022-08-11T02:45:48;20.30;1.00
29721;DHT22;23665;51.044;3.748;2022-08-11T02:54:15;20.20;1.00
29721;DHT22;23665;51.044;3.748;2022-08-11T02:57:05;20.30;1.00
29721;DHT22;23665;51.044;3.748;2022-08-11T02:59:55;20.30;1.00
29721;DHT22;23665;51.044;3.748;2022-08-11T03:03:29;20.10;1.00
29721;DHT22;23665;51.044;3.748;2022-08-11T03:08:59;20.00;1.00
29721;DHT22;23665;51.044;3.748;2022-08-11T03:14:57;20.00;1.00
29721;DHT22;23665;51.044;3.748;2022-08-11T03:18:23;20.10;1.00
29721;DHT22;23665;51.044;3.748;2022-08-11T03:21:16;20.00;1.00
29721;DHT22;23665;51.044;3.748;2022-08-11T03:29:46;20.00;1.00
29721;DHT22;23665;51.044;3.748;2022-08-11T03:35:02;20.00;1.00
29721;DHT22;23665;51.044;3.748;2022-08-11T03:37:50;20.10;1.00
29721;DHT22;23665;51.044;3.748;2022-08-11T03:43:47;19.90;1.00
29721;DHT22;23665;51.044;3.748;2022-08-11T03:50:02;19.90;1.00
29721;DHT22;23665;51.044;3.748;2022-08-11T04:21:40;19.30;4.40
29721;DHT22;23665;51.044;3.748;2022-08-11T04:50:14;19.30;1.00
29721;DHT22;23665;51.044;3.748;2022-08-11T04:53:12;19.30;1.00
29721;DHT22;23665;51.044;3.748;2022-08-11T05:13:47;19.70;28.20
29721;DHT22;23665;51.044;3.748;2022-08-11T05:16:49;20.90;1.00
29721;DHT22;23665;51.044;3.748;2022-08-11T05:19:35;21.60;1.00
29721;DHT22;23665;51.044;3.748;2022-08-11T05:22:21;21.90;1.00
29721;DHT22;23665;51.044;3.748;2022-08-11T05:25:13;22.20;99.90
29721;DHT22;23665;51.044;3.748;2022-08-11T05:28:02;22.40;99.90
29721;DHT22;23665;51.044;3.748;2022-08-11T05:30:48;22.60;99.90
29721;DHT22;23665;51.044;3.748;2022-08-11T05:33:46;22.50;99.90
29721;DHT22;23665;51.044;3.748;2022-08-11T05:36:51;22.60;99.90
29721;DHT22;23665;51.044;3.748;2022-08-11T05:39:23;22.70;99.90
29721;DHT22;23665;51.044;3.748;2022-08-11T05:42:08;23.30;99.90
29721;DHT22;23665;51.044;3.748;2022-08-11T05:44:55;23.40;98.60
29721;DHT22;23665;51.044;3.748;2022-08-11T05:47:41;23.60;87.70
29721;DHT22;23665;51.044;3.748;2022-08-11T05:50:26;23.80;1.00
29721;DHT22;23665;51.044;3.748;2022-08-11T05:53:12;23.00;1.00
29721;DHT22;23665;51.044;3.748;2022-08-11T05:55:58;22.60;1.00
29721;DHT22;23665;51.044;3.748;2022-08-11T05:58:51;22.30;1.00
29721;DHT22;23665;51.044;3.748;2022-08-11T06:01:28;22.00;1.00
29721;DHT22;23665;51.044;3.748;2022-08-11T06:03:57;22.00;1.00
29721;DHT22;23665;51.044;3.748;2022-08-11T06:06:48;21.90;1.00
29721;DHT22;23665;51.044;3.748;2022-08-11T06:09:46;21.70;1.00
29721;DHT22;23665;51.044;3.748;2022-08-11T06:12:21;21.70;1.00
29721;DHT22;23665;51.044;3.748;2022-08-11T06:14:52;21.50;1.00
29721;DHT22;23665;51.044;3.748;2022-08-11T06:17:42;21.60;1.00
29721;DHT22;23665;51.044;3.748;2022-08-11T06:20:10;21.60;1.00
29721;DHT22;23665;51.044;3.748;2022-08-11T06:22:44;21.70;1.00
29721;DHT22;23665;51.044;3.748;2022-08-11T06:25:11;22.00;1.00
29721;DHT22;23665;51.044;3.748;2022-08-11T06:27:38;22.00;1.00
29721;DHT22;23665;51.044;3.748;2022-08-11T06:30:06;22.20;1.00
29721;DHT22;23665;51.044;3.748;2022-08-11T06:32:50;22.20;1.00
29721;DHT22;23665;51.044;3.748;2022-08-11T06:35:32;22.20;1.00
29721;DHT22;23665;51.044;3.748;2022-08-11T06:40:42;22.50;1.00
29721;DHT22;23665;51.044;3.748;2022-08-11T06:46:45;22.60;1.00
29721;DHT22;23665;51.044;3.748;2022-08-11T06:49:13;22.70;1.00
29721;DHT22;23665;51.044;3.748;2022-08-11T06:52:02;22.60;1.00
29721;DHT22;23665;51.044;3.748;2022-08-11T06:54:31;22.70;1.00
29721;DHT22;23665;51.044;3.748;2022-08-11T06:56:58;22.90;1.00
29721;DHT22;23665;51.044;3.748;2022-08-11T06:59:44;22.70;1.00
29721;DHT22;23665;51.044;3.748;2022-08-11T07:02:52;22.90;1.00
29721;DHT22;23665;51.044;3.748;2022-08-11T07:05:24;23.20;1.00
29721;DHT22;23665;51.044;3.748;2022-08-11T07:08:31;23.30;1.00
29721;DHT22;23665;51.044;3.748;2022-08-11T07:19:05;23.80;1.00
29721;DHT22;23665;51.044;3.748;2022-08-11T07:21:50;23.90;1.00
29721;DHT22;23665;51.044;3.748;2022-08-11T07:24:39;24.10;1.00
29721;DHT22;23665;51.044;3.748;2022-08-11T07:27:31;24.30;1.00
29721;DHT22;23665;51.044;3.748;2022-08-11T07:30:19;24.70;99.90
29721;DHT22;23665;51.044;3.748;2022-08-11T07:33:04;24.70;99.90
29721;DHT22;23665;51.044;3.748;2022-08-11T07:35:33;24.80;99.90
29721;DHT22;23665;51.044;3.748;2022-08-11T07:38:17;25.00;99.90
29721;DHT22;23665;51.044;3.748;2022-08-11T07:40:45;25.20;99.90
29721;DHT22;23665;51.044;3.748;2022-08-11T07:43:12;25.40;99.90
29721;DHT22;23665;51.044;3.748;2022-08-11T07:45:42;25.50;99.90
29721;DHT22;23665;51.044;3.748;2022-08-11T07:48:27;25.60;99.90
29721;DHT22;23665;51.044;3.748;2022-08-11T07:51:19;25.90;79.00
29721;DHT22;23665;51.044;3.748;2022-08-11T07:54:04;26.20;1.00
29721;DHT22;23665;51.044;3.748;2022-08-11T07:56:34;26.30;1.00
29721;DHT22;23665;51.044;3.748;2022-08-11T07:59:02;26.30;1.00
29721;DHT22;23665;51.044;3.748;2022-08-11T08:01:47;26.20;1.00
29721;DHT22;23665;51.044;3.748;2022-08-11T08:04:32;26.20;1.00
29721;DHT22;23665;51.044;3.748;2022-08-11T08:07:20;26.10;1.00
29721;DHT22;23665;51.044;3.748;2022-08-11T08:10:09;26.10;1.00
29721;DHT22;23665;51.044;3.748;2022-08-11T08:12:54;26.40;1.00
29721;DHT22;23665;51.044;3.748;2022-08-11T08:15:40;26.70;1.00
29721;DHT22;23665;51.044;3.748;2022-08-11T08:18:25;26.90;1.00
29721;DHT22;23665;51.044;3.748;2022-08-11T08:20:51;27.10;99.90
29721;DHT22;23665;51.044;3.748;2022-08-11T08:23:21;27.40;1.00
29721;DHT22;23665;51.044;3.748;2022-08-11T08:25:59;27.30;1.00
29721;DHT22;23665;51.044;3.748;2022-08-11T08:28:27;27.30;1.00
29721;DHT22;23665;51.044;3.748;2022-08-11T08:30:54;27.60;99.90
29721;DHT22;23665;51.044;3.748;2022-08-11T08:33:30;27.70;44.90
29721;DHT22;23665;51.044;3.748;2022-08-11T08:35:59;27.80;1.00
29721;DHT22;23665;51.044;3.748;2022-08-11T08:38:52;28.00;99.90
29721;DHT22;23665;51.044;3.748;2022-08-11T08:41:23;28.00;1.00
29721;DHT22;23665;51.044;3.748;2022-08-11T08:43:52;28.00;99.90
29721;DHT22;23665;51.044;3.748;2022-08-11T08:46:27;28.20;99.90
29721;DHT22;23665;51.044;3.748;2022-08-11T08:48:56;28.40;1.00
29721;DHT22;23665;51.044;3.748;2022-08-11T08:51:24;28.60;1.00
29721;DHT22;23665;51.044;3.748;2022-08-11T08:54:09;28.70;1.00
29721;DHT22;23665;51.044;3.748;2022-08-11T08:56:39;29.00;99.90
29721;DHT22;23665;51.044;3.748;2022-08-11T08:59:06;29.00;99.90
29721;DHT22;23665;51.044;3.748;2022-08-11T09:01:54;29.10;99.90
29721;DHT22;23665;51.044;3.748;2022-08-11T09:04:21;29.40;1.00
29721;DHT22;23665;51.044;3.748;2022-08-11T09:06:47;29.60;1.00
29721;DHT22;23665;51.044;3.748;2022-08-11T09:09:15;29.60;99.90
29721;DHT22;23665;51.044;3.748;2022-08-11T09:11:42;29.80;99.90
29721;DHT22;23665;51.044;3.748;2022-08-11T09:14:18;29.90;99.90
29721;DHT22;23665;51.044;3.748;2022-08-11T09:16:46;30.00;1.00
29721;DHT22;23665;51.044;3.748;2022-08-11T09:19:17;29.90;1.00
29721;DHT22;23665;51.044;3.748;2022-08-11T09:21:46;29.80;1.00
29721;DHT22;23665;51.044;3.748;2022-08-11T09:24:35;29.80;1.00
29721;DHT22;23665;51.044;3.748;2022-08-11T09:27:20;30.10;1.00
29721;DHT22;23665;51.044;3.748;2022-08-11T09:29:46;30.20;1.00
29721;DHT22;23665;51.044;3.748;2022-08-11T09:32:13;30.20;1.00
29721;DHT22;23665;51.044;3.748;2022-08-11T09:34:39;30.50;1.00
29721;DHT22;23665;51.044;3.748;2022-08-11T09:37:08;30.70;1.00
29721;DHT22;23665;51.044;3.748;2022-08-11T09:39:53;30.90;1.00
29721;DHT22;23665;51.044;3.748;2022-08-11T09:42:39;31.00;99.90
29721;DHT22;23665;51.044;3.748;2022-08-11T09:45:24;31.00;1.00
29721;DHT22;23665;51.044;3.748;2022-08-11T09:47:52;30.80;1.00
29721;DHT22;23665;51.044;3.748;2022-08-11T09:50:18;31.10;1.00
29721;DHT22;23665;51.044;3.748;2022-08-11T09:52:45;31.20;1.00
29721;DHT22;23665;51.044;3.748;2022-08-11T09:55:13;31.20;1.00
29721;DHT22;23665;51.044;3.748;2022-08-11T09:57:44;31.40;55.40
29721;DHT22;23665;51.044;3.748;2022-08-11T10:00:35;31.40;99.90
29721;DHT22;23665;51.044;3.748;2022-08-11T10:03:15;31.40;1.00
29721;DHT22;23665;51.044;3.748;2022-08-11T10:05:47;31.50;1.00
29721;DHT22;23665;51.044;3.748;2022-08-11T10:08:33;31.60;99.90
29721;DHT22;23665;51.044;3.748;2022-08-11T10:11:02;31.70;1.00
29721;DHT22;23665;51.044;3.748;2022-08-11T10:13:33;31.80;1.00
29721;DHT22;23665;51.044;3.748;2022-08-11T10:16:22;31.80;1.00
29721;DHT22;23665;51.044;3.748;2022-08-11T10:18:50;31.90;1.00
29721;DHT22;23665;51.044;3.748;2022-08-11T10:24:00;32.10;1.00
29721;DHT22;23665;51.044;3.748;2022-08-11T10:26:49;32.20;1.00
29721;DHT22;23665;51.044;3.748;2022-08-11T10:29:46;32.20;1.00
29721;DHT22;23665;51.044;3.748;2022-08-11T10:32:31;32.40;21.50
29721;DHT22;23665;51.044;3.748;2022-08-11T10:35:17;32.00;18.80
29721;DHT22;23665;51.044;3.748;2022-08-11T10:37:45;32.10;83.20
29721;DHT22;23665;51.044;3.748;2022-08-11T10:40:17;32.40;83.50
29721;DHT22;23665;51.044;3.748;2022-08-11T10:42:53;32.60;80.30
29721;DHT22;23665;51.044;3.748;2022-08-11T10:45:46;32.50;79.30
29721;DHT22;23665;51.044;3.748;2022-08-11T10:48:36;32.10;79.70
29721;DHT22;23665;51.044;3.748;2022-08-11T10:51:02;32.10;81.00
29721;DHT22;23665;51.044;3.748;2022-08-11T10:53:50;32.60;80.60
29721;DHT22;23665;51.044;3.748;2022-08-11T10:56:36;33.00;79.40
29721;DHT22;23665;51.044;3.748;2022-08-11T10:59:23;33.00;77.20
29721;DHT22;23665;51.044;3.748;2022-08-11T11:01:52;33.10;78.50
29721;DHT22;23665;51.044;3.748;2022-08-11T11:04:23;32.90;77.00
29721;DHT22;23665;51.044;3.748;2022-08-11T11:07:15;33.00;76.80
29721;DHT22;23665;51.044;3.748;2022-08-11T11:09:50;33.00;76.00
29721;DHT22;23665;51.044;3.748;2022-08-11T11:12:23;33.10;75.60
29721;DHT22;23665;51.044;3.748;2022-08-11T11:15:08;33.00;75.00
29721;DHT22;23665;51.044;3.748;2022-08-11T11:17:58;33.00;74.00
29721;DHT22;23665;51.044;3.748;2022-08-11T11:23:30;33.10;75.20
29721;DHT22;23665;51.044;3.748;2022-08-11T11:34:05;33.00;73.30
29721;DHT22;23665;51.044;3.748;2022-08-11T11:36:51;33.00;73.70
29721;DHT22;23665;51.044;3.748;2022-08-11T11:39:29;32.90;72.70
29721;DHT22;23665;51.044;3.748;2022-08-11T11:41:58;32.90;72.30
29721;DHT22;23665;51.044;3.748;2022-08-11T11:44:25;33.20;72.50
29721;DHT22;23665;51.044;3.748;2022-08-11T11:46:51;33.30;71.10
29721;DHT22;23665;51.044;3.748;2022-08-11T11:49:19;33.40;71.30
29721;DHT22;23665;51.044;3.748;2022-08-11T11:51:47;33.30;70.60
29721;DHT22;23665;51.044;3.748;2022-08-11T11:54:14;33.30;71.00
29721;DHT22;23665;51.044;3.748;2022-08-11T11:56:41;33.40;71.00
29721;DHT22;23665;51.044;3.748;2022-08-11T11:59:08;33.50;70.80
29721;DHT22;23665;51.044;3.748;2022-08-11T12:01:55;33.60;70.90
29721;DHT22;23665;51.044;3.748;2022-08-11T12:04:21;33.40;69.50
29721;DHT22;23665;51.044;3.748;2022-08-11T12:06:48;33.50;70.10
29721;DHT22;23665;51.044;3.748;2022-08-11T12:09:14;33.80;69.70
29721;DHT22;23665;51.044;3.748;2022-08-11T12:11:43;33.40;68.90
29721;DHT22;23665;51.044;3.748;2022-08-11T12:14:28;33.30;69.40
29721;DHT22;23665;51.044;3.748;2022-08-11T12:16:55;33.00;69.30
29721;DHT22;23665;51.044;3.748;2022-08-11T12:19:26;33.30;70.20
29721;DHT22;23665;51.044;3.748;2022-08-11T12:21:56;33.70;68.60
29721;DHT22;23665;51.044;3.748;2022-08-11T12:24:41;33.70;67.90
29721;DHT22;23665;51.044;3.748;2022-08-11T12:27:26;33.80;68.10
29721;DHT22;23665;51.044;3.748;2022-08-11T12:29:57;33.70;68.20
29721;DHT22;23665;51.044;3.748;2022-08-11T12:32:26;33.80;67.20
29721;DHT22;23665;51.044;3.748;2022-08-11T12:34:53;34.10;68.10
29721;DHT22;23665;51.044;3.748;2022-08-11T12:37:26;34.30;67.10
29721;DHT22;23665;51.044;3.748;2022-08-11T12:39:58;34.60;66.70
29721;DHT22;23665;51.044;3.748;2022-08-11T12:42:44;34.30;67.70
29721;DHT22;23665;51.044;3.748;2022-08-11T12:45:37;34.00;68.40
29721;DHT22;23665;51.044;3.748;2022-08-11T12:48:10;33.80;67.10
29721;DHT22;23665;51.044;3.748;2022-08-11T12:51:06;33.60;65.80
29721;DHT22;23665;51.044;3.748;2022-08-11T12:54:11;33.70;65.30
29721;DHT22;23665;51.044;3.748;2022-08-11T12:56:40;33.60;65.00
29721;DHT22;23665;51.044;3.748;2022-08-11T12:59:25;33.60;64.00
29721;DHT22;23665;51.044;3.748;2022-08-11T13:02:18;33.70;65.70
29721;DHT22;23665;51.044;3.748;2022-08-11T13:05:05;33.80;65.50
29721;DHT22;23665;51.044;3.748;2022-08-11T13:07:31;33.80;64.60
29721;DHT22;23665;51.044;3.748;2022-08-11T13:10:00;33.70;63.40
29721;DHT22;23665;51.044;3.748;2022-08-11T13:12:28;33.70;63.90
29721;DHT22;23665;51.044;3.748;2022-08-11T13:15:23;33.70;63.90
29721;DHT22;23665;51.044;3.748;2022-08-11T13:17:51;33.90;63.40
29721;DHT22;23665;51.044;3.748;2022-08-11T13:20:21;33.80;64.70
29721;DHT22;23665;51.044;3.748;2022-08-11T13:22:53;33.90;64.00
29721;DHT22;23665;51.044;3.748;2022-08-11T13:25:21;34.40;63.50
29721;DHT22;23665;51.044;3.748;2022-08-11T13:27:50;34.20;64.60
29721;DHT22;23665;51.044;3.748;2022-08-11T13:30:16;34.10;65.20
29721;DHT22;23665;51.044;3.748;2022-08-11T13:33:02;34.00;66.10
29721;DHT22;23665;51.044;3.748;2022-08-11T13:35:30;34.30;63.80
29721;DHT22;23665;51.044;3.748;2022-08-11T13:37:58;34.30;63.90
29721;DHT22;23665;51.044;3.748;2022-08-11T13:40:25;34.10;64.20
29721;DHT22;23665;51.044;3.748;2022-08-11T13:42:52;34.20;64.20
29721;DHT22;23665;51.044;3.748;2022-08-11T13:45:21;34.20;63.30
29721;DHT22;23665;51.044;3.748;2022-08-11T13:47:48;34.10;63.00
29721;DHT22;23665;51.044;3.748;2022-08-11T13:50:14;34.10;63.10
29721;DHT22;23665;51.044;3.748;2022-08-11T13:52:41;33.90;64.00
29721;DHT22;23665;51.044;3.748;2022-08-11T13:55:10;34.40;62.40
29721;DHT22;23665;51.044;3.748;2022-08-11T13:57:55;34.40;63.80
29721;DHT22;23665;51.044;3.748;2022-08-11T14:00:21;34.20;63.90
29721;DHT22;23665;51.044;3.748;2022-08-11T14:02:48;34.20;63.60
29721;DHT22;23665;51.044;3.748;2022-08-11T14:05:18;34.00;63.50
29721;DHT22;23665;51.044;3.748;2022-08-11T14:07:50;33.90;62.80
29721;DHT22;23665;51.044;3.748;2022-08-11T14:10:20;33.90;61.70
29721;DHT22;23665;51.044;3.748;2022-08-11T14:12:56;33.80;62.30
29721;DHT22;23665;51.044;3.748;2022-08-11T14:15:44;33.70;63.50
29721;DHT22;23665;51.044;3.748;2022-08-11T14:18:22;33.90;63.00
29721;DHT22;23665;51.044;3.748;2022-08-11T14:20:53;33.70;62.80
29721;DHT22;23665;51.044;3.748;2022-08-11T14:23:40;33.80;63.40
29721;DHT22;23665;51.044;3.748;2022-08-11T14:26:10;33.70;62.70
29721;DHT22;23665;51.044;3.748;2022-08-11T14:28:50;33.70;61.40
29721;DHT22;23665;51.044;3.748;2022-08-11T14:31:21;33.80;62.30
29721;DHT22;23665;51.044;3.748;2022-08-11T14:33:49;33.70;62.80
29721;DHT22;23665;51.044;3.748;2022-08-11T14:36:17;33.80;63.50
29721;DHT22;23665;51.044;3.748;2022-08-11T14:38:43;33.70;63.00
29721;DHT22;23665;51.044;3.748;2022-08-11T14:41:09;33.80;62.90
29721;DHT22;23665;51.044;3.748;2022-08-11T14:43:55;33.80;63.20
29721;DHT22;23665;51.044;3.748;2022-08-11T14:46:41;33.70;62.80
29721;DHT22;23665;51.044;3.748;2022-08-11T14:49:27;33.70;62.50
29721;DHT22;23665;51.044;3.748;2022-08-11T14:51:54;33.80;61.80
29721;DHT22;23665;51.044;3.748;2022-08-11T14:54:28;33.50;62.40
29721;DHT22;23665;51.044;3.748;2022-08-11T14:57:14;33.80;62.00
29721;DHT22;23665;51.044;3.748;2022-08-11T14:59:41;33.70;63.20
29721;DHT22;23665;51.044;3.748;2022-08-11T15:02:08;33.60;64.40
29721;DHT22;23665;51.044;3.748;2022-08-11T15:04:53;33.60;64.50
29721;DHT22;23665;51.044;3.748;2022-08-11T15:07:21;34.00;62.60
29721;DHT22;23665;51.044;3.748;2022-08-11T15:09:58;34.10;62.40
29721;DHT22;23665;51.044;3.748;2022-08-11T15:12:24;33.80;61.70
29721;DHT22;23665;51.044;3.748;2022-08-11T15:14:50;33.90;60.90
29721;DHT22;23665;51.044;3.748;2022-08-11T15:17:35;33.90;61.00
29721;DHT22;23665;51.044;3.748;2022-08-11T15:20:07;33.70;61.30
29721;DHT22;23665;51.044;3.748;2022-08-11T15:22:52;33.60;61.40
29721;DHT22;23665;51.044;3.748;2022-08-11T15:25:38;33.60;61.90
29721;DHT22;23665;51.044;3.748;2022-08-11T15:28:06;33.60;61.90
29721;DHT22;23665;51.044;3.748;2022-08-11T15:30:54;33.60;61.00
29721;DHT22;23665;51.044;3.748;2022-08-11T15:33:40;33.50;59.70
29721;DHT22;23665;51.044;3.748;2022-08-11T15:36:29;33.60;59.90
29721;DHT22;23665;51.044;3.748;2022-08-11T15:39:31;33.50;59.70
29721;DHT22;23665;51.044;3.748;2022-08-11T15:42:02;33.60;60.90
29721;DHT22;23665;51.044;3.748;2022-08-11T15:44:52;33.50;60.50
29721;DHT22;23665;51.044;3.748;2022-08-11T15:47:48;33.60;60.70
29721;DHT22;23665;51.044;3.748;2022-08-11T15:50:25;33.80;60.80
29721;DHT22;23665;51.044;3.748;2022-08-11T15:52:59;33.70;59.90
29721;DHT22;23665;51.044;3.748;2022-08-11T15:55:28;33.70;60.50
29721;DHT22;23665;51.044;3.748;2022-08-11T15:57:56;33.70;60.80
29721;DHT22;23665;51.044;3.748;2022-08-11T16:00:44;33.80;59.20
29721;DHT22;23665;51.044;3.748;2022-08-11T16:03:34;33.90;58.90
29721;DHT22;23665;51.044;3.748;2022-08-11T16:06:20;33.80;58.70
29721;DHT22;23665;51.044;3.748;2022-08-11T16:08:47;33.80;58.70
29721;DHT22;23665;51.044;3.748;2022-08-11T16:11:13;33.70;59.40
29721;DHT22;23665;51.044;3.748;2022-08-11T16:13:39;33.50;59.00
29721;DHT22;23665;51.044;3.748;2022-08-11T16:16:05;33.40;58.80
29721;DHT22;23665;51.044;3.748;2022-08-11T16:18:49;33.50;59.10
29721;DHT22;23665;51.044;3.748;2022-08-11T16:21:20;33.60;59.30
29721;DHT22;23665;51.044;3.748;2022-08-11T16:23:48;34.10;59.90
29721;DHT22;23665;51.044;3.748;2022-08-11T16:26:19;34.30;59.10
29721;DHT22;23665;51.044;3.748;2022-08-11T16:28:51;34.60;58.80
29721;DHT22;23665;51.044;3.748;2022-08-11T16:31:20;35.70;58.10
29721;DHT22;23665;51.044;3.748;2022-08-11T16:33:47;36.60;56.80
29721;DHT22;23665;51.044;3.748;2022-08-11T16:36:13;37.70;55.90
29721;DHT22;23665;51.044;3.748;2022-08-11T16:39:00;38.00;55.20
29721;DHT22;23665;51.044;3.748;2022-08-11T16:41:28;38.30;54.60
29721;DHT22;23665;51.044;3.748;2022-08-11T16:44:14;38.50;54.60
29721;DHT22;23665;51.044;3.748;2022-08-11T16:47:00;38.70;53.90
29721;DHT22;23665;51.044;3.748;2022-08-11T16:49:33;38.60;53.80
29721;DHT22;23665;51.044;3.748;2022-08-11T16:52:00;38.90;53.40
29721;DHT22;23665;51.044;3.748;2022-08-11T16:54:31;39.30;52.30
29721;DHT22;23665;51.044;3.748;2022-08-11T16:56:58;39.70;52.50
29721;DHT22;23665;51.044;3.748;2022-08-11T16:59:45;39.50;50.50
29721;DHT22;23665;51.044;3.748;2022-08-11T17:02:16;39.70;50.50
29721;DHT22;23665;51.044;3.748;2022-08-11T17:05:10;39.60;51.50
29721;DHT22;23665;51.044;3.748;2022-08-11T17:07:57;39.80;50.20
29721;DHT22;23665;51.044;3.748;2022-08-11T17:10:55;39.80;50.60
29721;DHT22;23665;51.044;3.748;2022-08-11T17:13:52;39.90;49.80
29721;DHT22;23665;51.044;3.748;2022-08-11T17:16:24;40.50;49.60
29721;DHT22;23665;51.044;3.748;2022-08-11T17:19:19;40.40;49.90
29721;DHT22;23665;51.044;3.748;2022-08-11T17:21:47;40.50;50.00
29721;DHT22;23665;51.044;3.748;2022-08-11T17:24:35;40.20;49.80
29721;DHT22;23665;51.044;3.748;2022-08-11T17:27:02;39.60;50.20
29721;DHT22;23665;51.044;3.748;2022-08-11T17:29:51;39.50;50.00
29721;DHT22;23665;51.044;3.748;2022-08-11T17:32:29;39.40;50.40
29721;DHT22;23665;51.044;3.748;2022-08-11T17:35:18;39.40;50.70
29721;DHT22;23665;51.044;3.748;2022-08-11T17:40:39;38.70;50.60
29721;DHT22;23665;51.044;3.748;2022-08-11T17:43:26;38.90;50.80
29721;DHT22;23665;51.044;3.748;2022-08-11T17:46:12;39.20;50.10
29721;DHT22;23665;51.044;3.748;2022-08-11T17:48:57;39.10;49.80
29721;DHT22;23665;51.044;3.748;2022-08-11T17:51:23;39.00;50.00
29721;DHT22;23665;51.044;3.748;2022-08-11T17:54:08;38.70;49.40
29721;DHT22;23665;51.044;3.748;2022-08-11T17:56:54;38.20;49.60
29721;DHT22;23665;51.044;3.748;2022-08-11T17:59:39;37.00;50.40
29721;DHT22;23665;51.044;3.748;2022-08-11T18:02:21;35.60;52.00
29721;DHT22;23665;51.044;3.748;2022-08-11T18:05:05;34.90;53.90
29721;DHT22;23665;51.044;3.748;2022-08-11T18:07:32;34.40;54.20
29721;DHT22;23665;51.044;3.748;2022-08-11T18:10:17;33.70;55.30
29721;DHT22;23665;51.044;3.748;2022-08-11T18:13:04;33.40;56.20
29721;DHT22;23665;51.044;3.748;2022-08-11T18:15:49;33.00;57.00
29721;DHT22;23665;51.044;3.748;2022-08-11T18:18:34;32.60;57.80
29721;DHT22;23665;51.044;3.748;2022-08-11T18:21:20;32.20;57.90
29721;DHT22;23665;51.044;3.748;2022-08-11T18:24:09;32.10;58.20
29721;DHT22;23665;51.044;3.748;2022-08-11T18:26:58;31.80;59.10
29721;DHT22;23665;51.044;3.748;2022-08-11T18:29:44;31.70;60.00
29721;DHT22;23665;51.044;3.748;2022-08-11T18:32:31;31.50;60.60
29721;DHT22;23665;51.044;3.748;2022-08-11T18:35:18;31.40;60.50
29721;DHT22;23665;51.044;3.748;2022-08-11T18:38:04;31.30;60.60
29721;DHT22;23665;51.044;3.748;2022-08-11T18:40:50;31.20;61.50
29721;DHT22;23665;51.044;3.748;2022-08-11T18:43:38;30.90;61.30
29721;DHT22;23665;51.044;3.748;2022-08-11T18:46:25;30.80;62.00
29721;DHT22;23665;51.044;3.748;2022-08-11T18:49:14;30.70;62.40
29721;DHT22;23665;51.044;3.748;2022-08-11T18:52:00;30.60;63.00
29721;DHT22;23665;51.044;3.748;2022-08-11T18:54:46;30.50;63.50
29721;DHT22;23665;51.044;3.748;2022-08-11T18:57:34;30.40;63.90
29721;DHT22;23665;51.044;3.748;2022-08-11T19:00:20;30.30;64.10
29721;DHT22;23665;51.044;3.748;2022-08-11T19:03:06;30.20;64.30
29721;DHT22;23665;51.044;3.748;2022-08-11T19:05:52;30.00;64.80
29721;DHT22;23665;51.044;3.748;2022-08-11T19:08:41;29.90;64.90
29721;DHT22;23665;51.044;3.748;2022-08-11T19:11:31;29.70;64.80
29721;DHT22;23665;51.044;3.748;2022-08-11T19:14:16;29.50;65.30
29721;DHT22;23665;51.044;3.748;2022-08-11T19:17:03;29.50;66.00
29721;DHT22;23665;51.044;3.748;2022-08-11T19:19:49;29.40;65.90
29721;DHT22;23665;51.044;3.748;2022-08-11T19:22:35;29.30;66.10
29721;DHT22;23665;51.044;3.748;2022-08-11T19:25:20;29.30;66.20
29721;DHT22;23665;51.044;3.748;2022-08-11T19:28:06;29.20;66.60
29721;DHT22;23665;51.044;3.748;2022-08-11T19:30:53;29.10;66.80
29721;DHT22;23665;51.044;3.748;2022-08-11T19:33:39;29.00;67.10
29721;DHT22;23665;51.044;3.748;2022-08-11T19:36:25;28.90;67.70
29721;DHT22;23665;51.044;3.748;2022-08-11T19:39:11;28.90;67.50
29721;DHT22;23665;51.044;3.748;2022-08-11T19:41:56;28.80;67.80
29721;DHT22;23665;51.044;3.748;2022-08-11T19:44:42;28.70;68.40
29721;DHT22;23665;51.044;3.748;2022-08-11T19:47:27;28.50;68.80
29721;DHT22;23665;51.044;3.748;2022-08-11T19:50:12;28.40;69.30
29721;DHT22;23665;51.044;3.748;2022-08-11T19:52:59;28.40;69.40
29721;DHT22;23665;51.044;3.748;2022-08-11T19:55:46;28.30;69.80
29721;DHT22;23665;51.044;3.748;2022-08-11T19:58:32;28.20;70.30
29721;DHT22;23665;51.044;3.748;2022-08-11T20:01:18;28.10;70.90
29721;DHT22;23665;51.044;3.748;2022-08-11T20:04:02;28.10;70.90
29721;DHT22;23665;51.044;3.748;2022-08-11T20:06:48;27.90;71.50
29721;DHT22;23665;51.044;3.748;2022-08-11T20:09:33;27.90;72.20
29721;DHT22;23665;51.044;3.748;2022-08-11T20:12:20;27.80;72.80
29721;DHT22;23665;51.044;3.748;2022-08-11T20:15:06;27.80;72.30
29721;DHT22;23665;51.044;3.748;2022-08-11T20:17:51;27.70;73.10
29721;DHT22;23665;51.044;3.748;2022-08-11T20:20:37;27.60;73.10
29721;DHT22;23665;51.044;3.748;2022-08-11T20:23:22;27.40;73.60